Time,TemperatureF,DewpointF,PressureIn,WindDirection,WindDirectionDegrees,WindSpeedMPH,WindSpeedGustMPH,Humidity,HourlyPrecipIn,Conditions,Clouds,dailyrainin,SoftwareType,DateUTC
2013-07-24 00:07:00,71.4,50.7,29.90,NNW,339,1.0,6.0,48,0.00,,,0.00,meteohub,2013-07-23 22:07:00,
2013-07-24 00:12:00,71.4,50.7,29.89,North,5,0.0,5.0,48,0.00,,,0.00,meteohub,2013-07-23 22:12:00,
2013-07-24 00:17:00,71.4,50.7,29.89,NNE,13,1.0,5.0,48,0.00,,,0.00,meteohub,2013-07-23 22:17:00,
2013-07-24 00:22:00,71.2,50.5,29.89,North,355,0.0,5.0,48,0.00,,,0.00,meteohub,2013-07-23 22:22:00,
2013-07-24 00:27:00,71.1,50.9,29.89,North,0,1.0,5.0,49,0.00,,,0.00,meteohub,2013-07-23 22:27:00,
2013-07-24 00:32:00,70.9,50.7,29.89,North,5,2.0,4.0,49,0.00,,,0.00,meteohub,2013-07-23 22:32:00,
2013-07-24 00:42:00,70.5,50.9,29.89,North,355,1.0,5.0,50,0.00,,,0.00,meteohub,2013-07-23 22:42:00,
2013-07-24 00:47:00,70.3,50.9,29.89,NNW,344,1.0,5.0,50,0.00,,,0.00,meteohub,2013-07-23 22:47:00,
2013-07-24 00:52:00,70.2,50.7,29.89,NNW,348,2.0,4.0,50,0.00,,,0.00,meteohub,2013-07-23 22:52:00,
2013-07-24 01:00:00,70.2,51.3,29.89,North,349,0.0,4.0,51,0.00,,,0.00,meteohub,2013-07-23 23:00:00,
2013-07-24 01:07:00,69.8,50.9,29.89,North,355,2.0,4.0,51,0.00,,,0.00,meteohub,2013-07-23 23:07:00,
2013-07-24 01:12:00,69.8,50.9,29.89,North,355,0.0,4.0,51,0.00,,,0.00,meteohub,2013-07-23 23:12:00,
2013-07-24 01:17:00,69.6,50.7,29.89,NNW,348,0.0,5.0,51,0.00,,,0.00,meteohub,2013-07-23 23:17:00,
2013-07-24 01:22:00,69.6,50.7,29.89,North,350,0.0,5.0,51,0.00,,,0.00,meteohub,2013-07-23 23:22:00,
2013-07-24 01:27:00,69.6,50.7,29.89,North,350,0.0,5.0,51,0.00,,,0.00,meteohub,2013-07-23 23:27:00,
2013-07-24 01:32:00,69.6,51.3,29.89,North,350,1.0,2.0,52,0.00,,,0.00,meteohub,2013-07-23 23:32:00,
2013-07-24 01:37:00,69.4,51.1,29.89,North,355,0.0,2.0,52,0.00,,,0.00,meteohub,2013-07-23 23:37:00,
2013-07-24 01:42:00,69.4,51.1,29.89,NNW,345,0.0,2.0,52,0.00,,,0.00,meteohub,2013-07-23 23:42:00,
2013-07-24 01:52:00,69.1,51.3,29.89,NNW,345,0.0,2.0,53,0.00,,,0.00,meteohub,2013-07-23 23:52:00,
2013-07-24 01:58:00,68.9,51.6,29.89,NNW,345,0.0,1.0,54,0.00,,,0.00,meteohub,2013-07-23 23:58:00,
2013-07-24 02:07:00,68.4,51.6,29.89,NNW,345,0.0,0.0,55,0.00,,,0.00,meteohub,2013-07-24 00:07:00,
2013-07-24 02:12:00,68.2,51.8,29.89,NNW,345,0.0,0.0,56,0.00,,,0.00,meteohub,2013-07-24 00:12:00,
2013-07-24 02:22:00,67.6,52.3,29.90,NNW,345,0.0,0.0,58,0.00,,,0.00,meteohub,2013-07-24 00:22:00,
2013-07-24 02:27:00,67.3,52.5,29.90,NNW,345,0.0,0.0,59,0.00,,,0.00,meteohub,2013-07-24 00:27:00,
2013-07-24 02:35:00,66.7,52.0,29.90,NNW,345,0.0,0.0,59,0.00,,,0.00,meteohub,2013-07-24 00:35:00,
2013-07-24 02:42:00,65.8,52.0,29.90,NNW,345,0.0,0.0,61,0.00,,,0.00,meteohub,2013-07-24 00:42:00,
2013-07-24 02:47:00,65.7,52.3,29.90,NNW,345,0.0,0.0,62,0.00,,,0.00,meteohub,2013-07-24 00:47:00,
2013-07-24 02:52:00,65.3,52.3,29.90,NNW,345,0.0,0.0,63,0.00,,,0.00,meteohub,2013-07-24 00:52:00,
2013-07-24 02:57:00,64.9,52.5,29.90,NNW,345,0.0,0.0,64,0.00,,,0.00,meteohub,2013-07-24 00:57:00,
2013-07-24 03:02:00,64.8,52.7,29.89,NNW,345,0.0,0.0,65,0.00,,,0.00,meteohub,2013-07-24 01:02:00,
2013-07-24 03:07:00,64.4,52.3,29.90,NNW,345,0.0,0.0,65,0.00,,,0.00,meteohub,2013-07-24 01:07:00,
2013-07-24 03:12:00,64.0,52.0,29.89,NNW,345,0.0,0.0,65,0.00,,,0.00,meteohub,2013-07-24 01:12:00,
2013-07-24 03:17:00,64.0,51.6,29.89,NNW,345,0.0,0.0,64,0.00,,,0.00,meteohub,2013-07-24 01:17:00,
2013-07-24 03:22:00,63.9,51.8,29.89,NNW,345,0.0,0.0,65,0.00,,,0.00,meteohub,2013-07-24 01:22:00,
2013-07-24 03:27:00,63.7,52.2,29.89,NNW,345,0.0,0.0,66,0.00,,,0.00,meteohub,2013-07-24 01:27:00,
2013-07-24 03:32:00,63.7,52.2,29.89,NNW,345,0.0,0.0,66,0.00,,,0.00,meteohub,2013-07-24 01:32:00,
2013-07-24 03:37:00,63.5,52.0,29.89,NNW,345,0.0,0.0,66,0.00,,,0.00,meteohub,2013-07-24 01:37:00,
2013-07-24 03:47:00,63.1,51.6,29.89,NNW,345,0.0,0.0,66,0.00,,,0.00,meteohub,2013-07-24 01:47:00,
2013-07-24 03:57:00,63.0,52.2,29.89,NNW,345,0.0,0.0,68,0.00,,,0.00,meteohub,2013-07-24 01:57:00,
2013-07-24 04:02:00,62.8,52.0,29.89,NNW,345,0.0,0.0,68,0.00,,,0.00,meteohub,2013-07-24 02:02:00,
2013-07-24 04:07:00,62.8,51.6,29.89,NNW,345,0.0,0.0,67,0.00,,,0.00,meteohub,2013-07-24 02:07:00,
2013-07-24 04:12:00,62.4,51.8,29.89,NNW,345,0.0,0.0,68,0.00,,,0.00,meteohub,2013-07-24 02:12:00,
2013-07-24 04:17:00,62.4,52.2,29.89,NNW,345,0.0,0.0,69,0.00,,,0.00,meteohub,2013-07-24 02:17:00,
2013-07-24 04:22:00,62.2,52.0,29.89,NNW,345,0.0,0.0,69,0.00,,,0.00,meteohub,2013-07-24 02:22:00,
2013-07-24 04:27:00,62.2,52.0,29.89,NNW,345,0.0,0.0,69,0.00,,,0.00,meteohub,2013-07-24 02:27:00,
2013-07-24 04:32:00,62.1,51.8,29.89,NNW,345,0.0,0.0,69,0.00,,,0.00,meteohub,2013-07-24 02:32:00,
2013-07-24 04:37:00,62.1,51.8,29.89,NNW,345,0.0,0.0,69,0.00,,,0.00,meteohub,2013-07-24 02:37:00,
2013-07-24 04:42:00,61.9,52.0,29.89,NNW,345,0.0,0.0,70,0.00,,,0.00,meteohub,2013-07-24 02:42:00,
2013-07-24 04:47:00,61.9,52.0,29.89,NNW,345,0.0,0.0,70,0.00,,,0.00,meteohub,2013-07-24 02:47:00,
2013-07-24 04:57:00,61.5,52.0,29.89,NNW,345,0.0,0.0,71,0.00,,,0.00,meteohub,2013-07-24 02:57:00,
2013-07-24 05:07:00,61.3,51.8,29.89,NNW,345,0.0,0.0,71,0.00,,,0.00,meteohub,2013-07-24 03:07:00,
2013-07-24 05:12:00,61.3,51.8,29.89,NNW,345,0.0,0.0,71,0.00,,,0.00,meteohub,2013-07-24 03:12:00,
2013-07-24 05:17:00,61.2,52.0,29.90,NNW,345,0.0,0.0,72,0.00,,,0.00,meteohub,2013-07-24 03:17:00,
2013-07-24 05:22:00,61.2,52.0,29.90,NNW,345,0.0,0.0,72,0.00,,,0.00,meteohub,2013-07-24 03:22:00,
2013-07-24 05:32:00,61.0,52.3,29.90,NNW,345,0.0,0.0,73,0.00,,,0.00,meteohub,2013-07-24 03:32:00,
2013-07-24 05:37:00,60.8,52.2,29.90,NNW,345,0.0,0.0,73,0.00,,,0.00,meteohub,2013-07-24 03:37:00,
2013-07-24 05:43:00,60.8,52.5,29.90,NNW,345,0.0,0.0,74,0.00,,,0.00,meteohub,2013-07-24 03:43:00,
2013-07-24 05:52:00,60.6,52.3,29.90,NNW,345,0.0,0.0,74,0.00,,,0.00,meteohub,2013-07-24 03:52:00,
2013-07-24 05:57:00,60.6,52.3,29.90,NNW,345,0.0,0.0,74,0.00,,,0.00,meteohub,2013-07-24 03:57:00,
2013-07-24 06:02:00,60.6,52.7,29.90,NNW,345,0.0,0.0,75,0.00,,,0.00,meteohub,2013-07-24 04:02:00,
2013-07-24 06:12:00,60.6,53.1,29.90,NNW,345,0.0,0.0,76,0.00,,,0.00,meteohub,2013-07-24 04:12:00,
2013-07-24 06:17:00,60.6,52.7,29.90,NNW,345,0.0,0.0,75,0.00,,,0.00,meteohub,2013-07-24 04:17:00,
2013-07-24 06:22:00,60.8,52.9,29.90,NNW,345,0.0,1.0,75,0.00,,,0.00,meteohub,2013-07-24 04:22:00,
2013-07-24 06:27:00,61.0,53.4,29.91,NNW,345,0.0,1.0,76,0.00,,,0.00,meteohub,2013-07-24 04:27:00,
2013-07-24 06:32:00,61.0,53.4,29.91,NNW,345,0.0,1.0,76,0.00,,,0.00,meteohub,2013-07-24 04:32:00,
2013-07-24 06:42:00,61.3,53.1,29.91,NNW,345,0.0,0.0,74,0.00,,,0.00,meteohub,2013-07-24 04:42:00,
2013-07-24 06:47:00,61.5,52.7,29.91,NNW,345,0.0,0.0,73,0.00,,,0.00,meteohub,2013-07-24 04:47:00,
2013-07-24 06:52:00,61.9,53.4,29.91,NNW,345,0.0,0.0,74,0.00,,,0.00,meteohub,2013-07-24 04:52:00,
2013-07-24 07:02:00,62.6,53.8,29.91,NNW,345,0.0,1.0,73,0.00,,,0.00,meteohub,2013-07-24 05:02:00,
2013-07-24 07:12:00,63.3,53.4,29.91,ENE,61,0.0,1.0,70,0.00,,,0.00,meteohub,2013-07-24 05:12:00,
2013-07-24 07:22:00,63.9,53.1,29.91,SSE,150,1.0,2.0,68,0.00,,,0.00,meteohub,2013-07-24 05:22:00,
2013-07-24 07:32:00,64.6,53.8,29.91,SSE,150,0.0,2.0,68,0.00,,,0.00,meteohub,2013-07-24 05:32:00,
2013-07-24 07:37:00,64.9,53.8,29.91,SSE,151,1.0,1.0,67,0.00,,,0.00,meteohub,2013-07-24 05:37:00,
2013-07-24 07:42:00,65.1,53.4,29.91,SSE,151,1.0,2.0,66,0.00,,,0.00,meteohub,2013-07-24 05:42:00,
2013-07-24 07:47:00,65.5,54.3,29.91,SSE,151,0.0,2.0,67,0.00,,,0.00,meteohub,2013-07-24 05:47:00,
2013-07-24 07:52:00,65.8,53.8,29.91,SSE,152,0.0,2.0,65,0.00,,,0.00,meteohub,2013-07-24 05:52:00,
2013-07-24 07:57:00,66.0,54.0,29.91,SW,225,0.0,2.0,65,0.00,,,0.00,meteohub,2013-07-24 05:57:00,
2013-07-24 08:02:00,66.4,54.3,29.91,South,189,0.0,3.0,65,0.00,,,0.00,meteohub,2013-07-24 06:02:00,
2013-07-24 08:07:00,66.7,54.1,29.91,SSE,166,2.0,3.0,64,0.00,,,0.00,meteohub,2013-07-24 06:07:00,
2013-07-24 08:12:00,67.1,54.5,29.91,SSE,165,2.0,3.0,64,0.00,,,0.00,meteohub,2013-07-24 06:12:00,
2013-07-24 08:17:00,67.6,54.7,29.91,South,175,0.0,3.0,63,0.00,,,0.00,meteohub,2013-07-24 06:17:00,
2013-07-24 08:22:00,68.2,55.0,29.91,SW,227,2.0,2.0,63,0.00,,,0.00,meteohub,2013-07-24 06:22:00,
2013-07-24 08:27:00,68.4,54.9,29.92,SW,227,0.0,2.0,62,0.00,,,0.00,meteohub,2013-07-24 06:27:00,
2013-07-24 08:32:00,68.4,55.2,29.92,SW,226,1.0,2.0,63,0.00,,,0.00,meteohub,2013-07-24 06:32:00,
2013-07-24 08:37:00,68.7,55.2,29.91,SW,226,1.0,2.0,62,0.00,,,0.00,meteohub,2013-07-24 06:37:00,
2013-07-24 08:42:00,69.3,55.8,29.91,SW,226,1.0,3.0,62,0.00,,,0.00,meteohub,2013-07-24 06:42:00,
2013-07-24 08:52:00,69.4,56.3,29.92,SW,226,1.0,3.0,63,0.00,,,0.00,meteohub,2013-07-24 06:52:00,
2013-07-24 08:57:00,69.8,55.2,29.92,SW,226,0.0,3.0,60,0.00,,,0.00,meteohub,2013-07-24 06:57:00,
2013-07-24 09:07:00,69.8,55.8,29.91,SW,226,0.0,4.0,61,0.00,,,0.00,meteohub,2013-07-24 07:07:00,
2013-07-24 09:12:00,70.3,56.3,29.91,SW,226,3.0,4.0,61,0.00,,,0.00,meteohub,2013-07-24 07:12:00,
2013-07-24 09:17:00,71.4,56.3,29.91,SW,226,0.0,4.0,59,0.00,,,0.00,meteohub,2013-07-24 07:17:00,
2013-07-24 09:27:00,72.1,57.0,29.91,SW,226,0.0,3.0,59,0.00,,,0.00,meteohub,2013-07-24 07:27:00,
2013-07-24 09:32:00,72.7,57.0,29.91,SW,227,1.0,2.0,58,0.00,,,0.00,meteohub,2013-07-24 07:32:00,
2013-07-24 09:37:00,72.7,57.6,29.91,SW,227,0.0,3.0,59,0.00,,,0.00,meteohub,2013-07-24 07:37:00,
2013-07-24 09:42:00,73.0,56.5,29.91,SW,226,1.0,4.0,56,0.00,,,0.00,meteohub,2013-07-24 07:42:00,
2013-07-24 09:47:00,73.2,56.7,29.91,SW,226,1.0,4.0,56,0.00,,,0.00,meteohub,2013-07-24 07:47:00,
2013-07-24 09:57:00,73.0,57.4,29.91,SW,226,0.0,5.0,58,0.00,,,0.00,meteohub,2013-07-24 07:57:00,
2013-07-24 10:02:00,73.8,56.7,29.91,SW,227,1.0,5.0,55,0.00,,,0.00,meteohub,2013-07-24 08:02:00,
2013-07-24 10:07:00,74.3,58.6,29.91,SW,226,1.0,5.0,58,0.00,,,0.00,meteohub,2013-07-24 08:07:00,
2013-07-24 10:12:00,75.4,58.1,29.91,SW,226,1.0,5.0,55,0.00,,,0.00,meteohub,2013-07-24 08:12:00,
2013-07-24 10:17:00,75.9,58.1,29.91,SW,227,3.0,5.0,54,0.00,,,0.00,meteohub,2013-07-24 08:17:00,
2013-07-24 10:22:00,75.9,57.6,29.91,SW,226,0.0,5.0,53,0.00,,,0.00,meteohub,2013-07-24 08:22:00,
2013-07-24 10:27:00,76.3,58.5,29.91,SW,227,1.0,5.0,54,0.00,,,0.00,meteohub,2013-07-24 08:27:00,
2013-07-24 10:32:00,76.6,57.2,29.91,SW,227,2.0,5.0,51,0.00,,,0.00,meteohub,2013-07-24 08:32:00,
2013-07-24 10:37:00,77.4,58.3,29.91,SW,226,0.0,5.0,52,0.00,,,0.00,meteohub,2013-07-24 08:37:00,
2013-07-24 10:42:00,77.5,56.8,29.91,SW,226,0.0,5.0,49,0.00,,,0.00,meteohub,2013-07-24 08:42:00,
2013-07-24 10:47:00,77.5,57.4,29.91,SW,226,0.0,5.0,50,0.00,,,0.00,meteohub,2013-07-24 08:47:00,
2013-07-24 10:52:00,77.5,56.8,29.91,SW,227,4.0,6.0,49,0.00,,,0.00,meteohub,2013-07-24 08:52:00,
2013-07-24 10:57:00,77.7,57.6,29.91,SW,227,2.0,6.0,50,0.00,,,0.00,meteohub,2013-07-24 08:57:00,
2013-07-24 11:07:00,78.4,57.7,29.91,SW,227,1.0,6.0,49,0.00,,,0.00,meteohub,2013-07-24 09:07:00,
2013-07-24 11:12:00,79.0,57.6,29.91,SW,226,1.0,6.0,48,0.00,,,0.00,meteohub,2013-07-24 09:12:00,
2013-07-24 11:17:00,79.3,57.9,29.91,SW,227,0.0,6.0,48,0.00,,,0.00,meteohub,2013-07-24 09:17:00,
2013-07-24 11:27:00,79.9,57.2,29.91,SW,227,0.0,5.0,46,0.00,,,0.00,meteohub,2013-07-24 09:27:00,
2013-07-24 11:32:00,80.2,57.0,29.91,SW,227,4.0,5.0,45,0.00,,,0.00,meteohub,2013-07-24 09:32:00,
2013-07-24 11:37:00,80.2,55.8,29.91,SW,227,1.0,5.0,43,0.00,,,0.00,meteohub,2013-07-24 09:37:00,
2013-07-24 11:42:00,80.2,56.3,29.91,SW,227,1.0,5.0,44,0.00,,,0.00,meteohub,2013-07-24 09:42:00,
2013-07-24 11:47:00,80.1,56.1,29.91,SW,227,2.0,6.0,44,0.00,,,0.00,meteohub,2013-07-24 09:47:00,
2013-07-24 11:57:00,80.2,55.0,29.91,North,5,2.0,7.0,42,0.00,,,0.00,meteohub,2013-07-24 09:57:00,
2013-07-24 12:02:00,80.4,55.9,29.91,NNW,336,1.0,7.0,43,0.00,,,0.00,meteohub,2013-07-24 10:02:00,
2013-07-24 12:07:00,80.2,52.3,29.91,SW,225,0.0,7.0,38,0.00,,,0.00,meteohub,2013-07-24 10:07:00,
2013-07-24 12:17:00,81.0,55.0,29.91,SW,225,0.0,7.0,41,0.00,,,0.00,meteohub,2013-07-24 10:17:00,
2013-07-24 12:22:00,81.3,54.0,29.91,SW,225,4.0,4.0,39,0.00,,,0.00,meteohub,2013-07-24 10:22:00,
2013-07-24 12:27:00,81.7,53.6,29.91,SW,225,1.0,5.0,38,0.00,,,0.00,meteohub,2013-07-24 10:27:00,
2013-07-24 12:32:00,81.0,52.9,29.91,SW,226,7.0,7.0,38,0.00,,,0.00,meteohub,2013-07-24 10:32:00,
2013-07-24 12:37:00,80.8,54.9,29.91,SW,226,6.0,7.0,41,0.00,,,0.00,meteohub,2013-07-24 10:37:00,
2013-07-24 12:42:00,81.0,54.3,29.90,SW,226,1.0,7.0,40,0.00,,,0.00,meteohub,2013-07-24 10:42:00,
2013-07-24 12:47:00,81.3,54.0,29.90,SW,226,1.0,7.0,39,0.00,,,0.00,meteohub,2013-07-24 10:47:00,
2013-07-24 12:52:00,81.5,51.3,29.90,SW,226,0.0,7.0,35,0.00,,,0.00,meteohub,2013-07-24 10:52:00,
2013-07-24 12:57:00,81.7,52.9,29.90,SW,226,1.0,6.0,37,0.00,,,0.00,meteohub,2013-07-24 10:57:00,
2013-07-24 13:02:00,82.0,53.2,29.90,SW,226,4.0,5.0,37,0.00,,,0.00,meteohub,2013-07-24 11:02:00,
2013-07-24 13:12:00,81.9,53.1,29.90,SW,226,4.0,7.0,37,0.00,,,0.00,meteohub,2013-07-24 11:12:00,
2013-07-24 13:17:00,81.7,52.9,29.90,SW,226,0.0,8.0,37,0.00,,,0.00,meteohub,2013-07-24 11:17:00,
2013-07-24 13:27:00,82.0,53.2,29.89,SW,226,5.0,8.0,37,0.00,,,0.00,meteohub,2013-07-24 11:27:00,
2013-07-24 13:32:00,82.2,52.5,29.89,SW,226,1.0,7.0,36,0.00,,,0.00,meteohub,2013-07-24 11:32:00,
2013-07-24 13:37:00,82.6,51.4,29.89,SW,226,2.0,8.0,34,0.00,,,0.00,meteohub,2013-07-24 11:37:00,
2013-07-24 13:42:00,82.8,52.3,29.89,SW,226,0.0,8.0,35,0.00,,,0.00,meteohub,2013-07-24 11:42:00,
2013-07-24 13:47:00,82.9,52.5,29.89,SW,226,2.0,8.0,35,0.00,,,0.00,meteohub,2013-07-24 11:47:00,
2013-07-24 13:52:00,83.1,51.8,29.89,SW,226,3.0,6.0,34,0.00,,,0.00,meteohub,2013-07-24 11:52:00,
2013-07-24 13:57:00,83.5,52.2,29.89,SW,226,1.0,7.0,34,0.00,,,0.00,meteohub,2013-07-24 11:57:00,
2013-07-24 14:02:00,83.8,52.5,29.88,SW,226,2.0,7.0,34,0.00,,,0.00,meteohub,2013-07-24 12:02:00,
2013-07-24 14:12:00,84.0,51.8,29.88,SW,226,1.0,5.0,33,0.00,,,0.00,meteohub,2013-07-24 12:12:00,
2013-07-24 14:22:00,84.4,53.8,29.88,SW,227,6.0,6.0,35,0.00,,,0.00,meteohub,2013-07-24 12:22:00,
2013-07-24 14:27:00,84.2,53.6,29.88,SW,226,1.0,7.0,35,0.00,,,0.00,meteohub,2013-07-24 12:27:00,
2013-07-24 14:32:00,84.0,52.7,29.88,SW,227,1.0,7.0,34,0.00,,,0.00,meteohub,2013-07-24 12:32:00,
2013-07-24 14:37:00,84.2,52.7,29.88,SW,226,0.0,7.0,34,0.00,,,0.00,meteohub,2013-07-24 12:37:00,
2013-07-24 14:42:00,84.4,52.2,29.88,SW,226,0.0,6.0,33,0.00,,,0.00,meteohub,2013-07-24 12:42:00,
2013-07-24 14:47:00,84.6,52.3,29.87,SW,226,4.0,8.0,33,0.00,,,0.00,meteohub,2013-07-24 12:47:00,
2013-07-24 14:52:00,84.6,51.4,29.87,SW,226,1.0,8.0,32,0.00,,,0.00,meteohub,2013-07-24 12:52:00,
2013-07-24 14:57:00,84.4,51.3,29.87,SW,226,1.0,6.0,32,0.00,,,0.00,meteohub,2013-07-24 12:57:00,
2013-07-24 15:02:00,84.2,51.1,29.87,SW,226,0.0,6.0,32,0.00,,,0.00,meteohub,2013-07-24 13:02:00,
2013-07-24 15:07:00,84.6,53.1,29.87,SW,226,2.0,6.0,34,0.00,,,0.00,meteohub,2013-07-24 13:07:00,
2013-07-24 15:12:00,84.7,52.5,29.87,SW,226,1.0,7.0,33,0.00,,,0.00,meteohub,2013-07-24 13:12:00,
2013-07-24 15:22:00,84.6,51.4,29.86,SW,226,0.0,8.0,32,0.00,,,0.00,meteohub,2013-07-24 13:22:00,
2013-07-24 15:27:00,84.7,52.5,29.86,SW,226,1.0,8.0,33,0.00,,,0.00,meteohub,2013-07-24 13:27:00,
2013-07-24 15:32:00,85.1,52.7,29.86,SW,226,6.0,7.0,33,0.00,,,0.00,meteohub,2013-07-24 13:32:00,
2013-07-24 15:37:00,84.7,52.5,29.86,SW,226,4.0,7.0,33,0.00,,,0.00,meteohub,2013-07-24 13:37:00,
2013-07-24 15:42:00,84.7,53.2,29.86,SW,226,0.0,7.0,34,0.00,,,0.00,meteohub,2013-07-24 13:42:00,
2013-07-24 15:47:00,85.3,52.9,29.86,SW,226,1.0,7.0,33,0.00,,,0.00,meteohub,2013-07-24 13:47:00,
2013-07-24 15:52:00,85.6,54.0,29.85,SW,226,0.0,5.0,34,0.00,,,0.00,meteohub,2013-07-24 13:52:00,
2013-07-24 16:02:00,85.5,53.1,29.85,SW,226,3.0,7.0,33,0.00,,,0.00,meteohub,2013-07-24 14:02:00,
2013-07-24 16:07:00,84.9,52.5,29.85,SW,226,1.0,9.0,33,0.00,,,0.00,meteohub,2013-07-24 14:07:00,
2013-07-24 16:12:00,84.4,52.2,29.85,SW,226,0.0,10.0,33,0.00,,,0.00,meteohub,2013-07-24 14:12:00,
2013-07-24 16:17:00,84.4,52.9,29.85,SW,226,0.0,10.0,34,0.00,,,0.00,meteohub,2013-07-24 14:17:00,
2013-07-24 16:27:00,84.7,54.1,29.85,SW,226,4.0,6.0,35,0.00,,,0.00,meteohub,2013-07-24 14:27:00,
2013-07-24 16:32:00,85.3,53.8,29.85,SW,226,1.0,6.0,34,0.00,,,0.00,meteohub,2013-07-24 14:32:00,
2013-07-24 16:37:00,85.6,53.2,29.85,SW,226,2.0,6.0,33,0.00,,,0.00,meteohub,2013-07-24 14:37:00,
2013-07-24 16:42:00,84.9,52.5,29.85,SW,226,3.0,9.0,33,0.00,,,0.00,meteohub,2013-07-24 14:42:00,
2013-07-24 16:47:00,84.9,53.4,29.85,SW,226,1.0,9.0,34,0.00,,,0.00,meteohub,2013-07-24 14:47:00,
2013-07-24 16:52:00,84.9,52.5,29.85,SW,226,5.0,9.0,33,0.00,,,0.00,meteohub,2013-07-24 14:52:00,
2013-07-24 16:57:00,84.9,52.5,29.85,SW,226,1.0,8.0,33,0.00,,,0.00,meteohub,2013-07-24 14:57:00,
2013-07-24 17:02:00,84.9,53.4,29.85,SW,226,0.0,8.0,34,0.00,,,0.00,meteohub,2013-07-24 15:02:00,
2013-07-24 17:12:00,84.9,52.5,29.85,SW,226,2.0,7.0,33,0.00,,,0.00,meteohub,2013-07-24 15:12:00,
2013-07-24 17:17:00,84.9,52.5,29.84,SW,226,1.0,7.0,33,0.00,,,0.00,meteohub,2013-07-24 15:17:00,
2013-07-24 17:22:00,85.3,53.8,29.84,SW,226,3.0,6.0,34,0.00,,,0.00,meteohub,2013-07-24 15:22:00,
2013-07-24 17:27:00,85.5,54.0,29.84,SW,226,5.0,5.0,34,0.00,,,0.00,meteohub,2013-07-24 15:27:00,
2013-07-24 17:32:00,85.1,53.6,29.84,SW,226,3.0,9.0,34,0.00,,,0.00,meteohub,2013-07-24 15:32:00,
2013-07-24 17:37:00,84.9,54.1,29.84,SW,226,0.0,9.0,35,0.00,,,0.00,meteohub,2013-07-24 15:37:00,
2013-07-24 17:42:00,84.9,53.4,29.84,SW,226,1.0,6.0,34,0.00,,,0.00,meteohub,2013-07-24 15:42:00,
2013-07-24 17:47:00,85.3,52.9,29.84,SW,226,1.0,8.0,33,0.00,,,0.00,meteohub,2013-07-24 15:47:00,
2013-07-24 17:52:00,85.3,53.8,29.84,SW,226,2.0,9.0,34,0.00,,,0.00,meteohub,2013-07-24 15:52:00,
2013-07-24 17:57:00,84.9,52.5,29.84,SW,226,0.0,9.0,33,0.00,,,0.00,meteohub,2013-07-24 15:57:00,
2013-07-24 18:02:00,84.7,53.2,29.84,SW,226,4.0,9.0,34,0.00,,,0.00,meteohub,2013-07-24 16:02:00,
2013-07-24 18:07:00,84.6,54.0,29.84,SW,226,2.0,6.0,35,0.00,,,0.00,meteohub,2013-07-24 16:07:00,
2013-07-24 18:17:00,83.8,52.5,29.84,SW,226,1.0,9.0,34,0.00,,,0.00,meteohub,2013-07-24 16:17:00,
2013-07-24 18:22:00,83.5,53.8,29.84,SW,226,2.0,9.0,36,0.00,,,0.00,meteohub,2013-07-24 16:22:00,
2013-07-24 18:27:00,83.1,56.3,29.84,NNW,338,2.0,7.0,40,0.00,,,0.00,meteohub,2013-07-24 16:27:00,
2013-07-24 18:32:00,82.8,56.7,29.84,North,9,0.0,7.0,41,0.00,,,0.00,meteohub,2013-07-24 16:32:00,
2013-07-24 18:42:00,82.0,57.4,29.84,SW,227,1.0,4.0,43,0.00,,,0.00,meteohub,2013-07-24 16:42:00,
2013-07-24 18:52:00,81.1,57.2,29.84,SW,227,1.0,4.0,44,0.00,,,0.00,meteohub,2013-07-24 16:52:00,
2013-07-24 18:57:00,80.8,57.4,29.84,SW,227,0.0,4.0,45,0.00,,,0.00,meteohub,2013-07-24 16:57:00,
2013-07-24 19:02:00,80.2,57.6,29.84,SW,227,0.0,5.0,46,0.00,,,0.00,meteohub,2013-07-24 17:02:00,
2013-07-24 19:12:00,79.5,56.8,29.84,SW,227,1.0,6.0,46,0.00,,,0.00,meteohub,2013-07-24 17:12:00,
2013-07-24 19:17:00,79.3,57.9,29.84,SW,227,1.0,6.0,48,0.00,,,0.00,meteohub,2013-07-24 17:17:00,
2013-07-24 19:22:00,79.2,57.7,29.84,SW,227,0.0,2.0,48,0.00,,,0.00,meteohub,2013-07-24 17:22:00,
2013-07-24 19:32:00,78.6,57.9,29.84,SW,227,0.0,2.0,49,0.00,,,0.00,meteohub,2013-07-24 17:32:00,
2013-07-24 19:37:00,78.4,57.7,29.84,SW,227,0.0,2.0,49,0.00,,,0.00,meteohub,2013-07-24 17:37:00,
2013-07-24 19:47:00,78.1,57.9,29.84,SW,227,1.0,2.0,50,0.00,,,0.00,meteohub,2013-07-24 17:47:00,
2013-07-24 19:52:00,77.9,58.3,29.85,SW,227,0.0,2.0,51,0.00,,,0.00,meteohub,2013-07-24 17:52:00,
2013-07-24 19:57:00,77.9,58.3,29.84,SW,227,0.0,1.0,51,0.00,,,0.00,meteohub,2013-07-24 17:57:00,
2013-07-24 20:02:00,77.7,58.1,29.84,SW,227,0.0,1.0,51,0.00,,,0.00,meteohub,2013-07-24 18:02:00,
2013-07-24 20:12:00,77.5,56.8,29.85,SW,227,1.0,2.0,49,0.00,,,0.00,meteohub,2013-07-24 18:12:00,
2013-07-24 20:17:00,77.5,57.4,29.85,SW,227,0.0,2.0,50,0.00,,,0.00,meteohub,2013-07-24 18:17:00,
2013-07-24 20:22:00,77.4,56.1,29.85,NW,325,0.0,2.0,48,0.00,,,0.00,meteohub,2013-07-24 18:22:00,
2013-07-24 20:27:00,77.5,55.8,29.85,NNE,23,2.0,4.0,47,0.00,,,0.00,meteohub,2013-07-24 18:27:00,
2013-07-24 20:32:00,77.7,55.2,29.85,NE,46,0.0,5.0,46,0.00,,,0.00,meteohub,2013-07-24 18:32:00,
2013-07-24 20:37:00,78.1,56.3,29.85,NW,322,5.0,5.0,47,0.00,,,0.00,meteohub,2013-07-24 18:37:00,
2013-07-24 20:42:00,78.3,56.3,29.85,North,351,1.0,5.0,47,0.00,,,0.00,meteohub,2013-07-24 18:42:00,
2013-07-24 20:52:00,78.6,56.1,29.85,NNE,19,0.0,6.0,46,0.00,,,0.00,meteohub,2013-07-24 18:52:00,
2013-07-24 20:57:00,78.6,55.6,29.85,North,5,0.0,6.0,45,0.00,,,0.00,meteohub,2013-07-24 18:57:00,
2013-07-24 21:02:00,78.8,56.3,29.86,SSE,168,0.0,3.0,46,0.00,,,0.00,meteohub,2013-07-24 19:02:00,
2013-07-24 21:12:00,78.3,56.3,29.86,SW,227,0.0,7.0,47,0.00,,,0.00,meteohub,2013-07-24 19:12:00,
2013-07-24 21:17:00,78.3,56.3,29.86,SW,227,2.0,7.0,47,0.00,,,0.00,meteohub,2013-07-24 19:17:00,
2013-07-24 21:27:00,77.5,56.8,29.87,SW,227,5.0,7.0,49,0.00,,,0.00,meteohub,2013-07-24 19:27:00,
2013-07-24 21:37:00,76.6,58.3,29.88,SW,227,2.0,9.0,53,0.00,,,0.00,meteohub,2013-07-24 19:37:00,
2013-07-24 21:47:00,75.7,59.0,29.88,South,171,2.0,9.0,56,0.00,,,0.00,meteohub,2013-07-24 19:47:00,
2013-07-24 21:52:00,75.4,59.0,29.89,SSW,195,0.0,9.0,57,0.00,,,0.00,meteohub,2013-07-24 19:52:00,
2013-07-24 21:57:00,75.0,59.2,29.89,SW,227,0.0,9.0,58,0.00,,,0.00,meteohub,2013-07-24 19:57:00,
2013-07-24 22:07:00,74.7,60.3,29.90,SW,227,0.0,5.0,61,0.00,,,0.00,meteohub,2013-07-24 20:07:00,
2013-07-24 22:12:00,74.3,60.4,29.90,SW,227,0.0,5.0,62,0.00,,,0.00,meteohub,2013-07-24 20:12:00,
2013-07-24 22:22:00,73.8,59.9,29.90,SW,227,0.0,4.0,62,0.00,,,0.00,meteohub,2013-07-24 20:22:00,
2013-07-24 22:27:00,73.6,60.3,29.90,SW,227,1.0,2.0,63,0.00,,,0.00,meteohub,2013-07-24 20:27:00,
2013-07-24 22:32:00,73.2,59.9,29.89,SW,227,0.0,4.0,63,0.00,,,0.00,meteohub,2013-07-24 20:32:00,
2013-07-24 22:42:00,72.9,60.8,29.90,SW,227,0.0,4.0,66,0.00,,,0.00,meteohub,2013-07-24 20:42:00,
2013-07-24 22:52:00,72.1,60.6,29.90,SW,227,0.0,2.0,67,0.00,,,0.00,meteohub,2013-07-24 20:52:00,
2013-07-24 23:02:00,71.4,60.3,29.91,SW,227,1.0,7.0,68,0.00,,,0.00,meteohub,2013-07-24 21:02:00,
2013-07-24 23:12:00,71.1,63.5,29.91,NW,326,1.0,7.0,77,0.00,,,0.00,meteohub,2013-07-24 21:12:00,
2013-07-24 23:17:00,70.0,63.5,29.92,NNE,22,0.0,4.0,80,0.16,,,0.16,meteohub,2013-07-24 21:17:00,
2013-07-24 23:22:00,68.7,63.0,29.92,SSE,157,2.0,3.0,82,0.23,,,0.23,meteohub,2013-07-24 21:22:00,
2013-07-24 23:27:00,68.2,63.5,29.92,SSE,159,0.0,5.0,85,0.23,,,0.23,meteohub,2013-07-24 21:27:00,
2013-07-24 23:37:00,67.3,62.6,29.92,NE,42,0.0,5.0,85,0.23,,,0.23,meteohub,2013-07-24 21:37:00,
2013-07-24 23:42:00,67.3,63.3,29.92,NE,51,0.0,1.0,87,0.23,,,0.23,meteohub,2013-07-24 21:42:00,
2013-07-24 23:52:00,67.1,63.7,29.92,NNE,33,0.0,1.0,89,0.23,,,0.23,meteohub,2013-07-24 21:52:00,